Time;durP1;ratioP1;P1;durP2;ratioP2;P2;SDS_P1;SDS_P2;PMS_P1;PMS_P2;Temp;Humidity;BMP_temperature;BMP_pressure;BME280_temperature;BME280_humidity;BME280_pressure;Samples;Min_cycle;Max_cycle;Signal;HPM_P1;HPM_P2
2021/05/28 00:01:12;;;;;;;;;;;;;;;16.80;56.19;101380.53;4995563;28;96942;-82
2021/05/28 00:03:39;;;;;;;;;;;;;;;16.65;56.58;101375.94;4992243;28;98937;-81
2021/05/28 00:06:04;;;;;;;;;;;;;;;16.82;55.98;101385.75;4998637;28;98814;-81
2021/05/28 00:08:30;;;;;;;;;;;;;;;16.76;56.43;101396.75;5007835;28;96739;-81
2021/05/28 00:10:56;;;;;;;;;;;;;;;16.71;56.72;101396.97;5004775;28;96785;-82
2021/05/28 00:13:22;;;;;;;;;;;;;;;16.50;57.44;101396.22;4988680;28;98104;-81
2021/05/28 00:15:48;;;;;;;;;;;;;;;16.49;57.26;101398.97;4996140;28;99289;-82
2021/05/28 00:18:14;;;;;;;;;;;;;;;16.78;56.34;101398.41;4987092;28;97123;-81
2021/05/28 00:20:40;;;;;;;;;;;;;;;16.48;57.24;101402.56;4988196;28;98771;-82
2021/05/28 00:23:06;;;;;;;;;;;;;;;16.75;56.45;101401.22;4990140;28;97847;-81
2021/05/28 00:25:32;;;;;;;;;;;;;;;17.11;55.46;101406.47;4999681;28;100046;-82
2021/05/28 00:27:58;;;;;;;;;;;;;;;16.38;57.48;101401.31;4999633;28;96707;-81
2021/05/28 00:30:24;;;;;;;;;;;;;;;16.30;57.32;101402.53;4997444;28;96785;-82
2021/05/28 00:32:50;;;;;;;;;;;;;;;16.63;56.65;101409.84;5007120;28;100428;-82
2021/05/28 00:35:17;;;;;;;;;;;;;;;16.37;56.53;101415.56;5006995;28;98021;-81
2021/05/28 00:37:44;;;;;;;;;;;;;;;16.43;57.24;101412.59;4997720;28;97708;-82
2021/05/28 00:40:11;;;;;;;;;;;;;;;16.61;56.67;101414.38;4994244;28;96774;-83
2021/05/28 00:42:37;;;;;;;;;;;;;;;16.66;56.25;101415.03;4995346;28;102411;-82
2021/05/28 00:45:03;;;;;;;;;;;;;;;16.64;56.35;101414.25;4986123;28;99146;-83
2021/05/28 00:47:29;;;;;;;;;;;;;;;16.63;56.24;101409.84;4992381;28;97071;-82
2021/05/28 00:49:55;;;;;;;;;;;;;;;16.61;56.22;101414.38;4995026;28;96806;-82
2021/05/28 00:52:21;;;;;;;;;;;;;;;16.54;56.37;101426.28;4992158;28;99334;-83
2021/05/28 00:54:47;;;;;;;;;;;;;;;16.39;57.05;101422.56;4981037;28;98817;-82
2021/05/28 00:57:13;;;;;;;;;;;;;;;16.70;56.24;101427.28;4983771;28;97812;-82
2021/05/28 00:59:39;;;;;;;;;;;;;;;16.49;56.48;101430.97;4988429;28;97334;-82
2021/05/28 01:02:06;;;;;;;;;;;;;;;16.79;55.75;101431.28;4989199;28;98320;-82
2021/05/28 01:04:32;;;;;;;;;;;;;;;16.76;55.76;101426.97;4989697;28;98907;-82
2021/05/28 01:06:57;;;;;;;;;;;;;;;16.32;56.96;101430.00;4991978;28;98545;-82
2021/05/28 01:09:23;;;;;;;;;;;;;;;16.33;57.28;101438.88;4982869;28;96856;-81
2021/05/28 01:11:50;;;;;;;;;;;;;;;16.29;57.20;101435.47;4987160;28;97984;-82
2021/05/28 01:14:17;;;;;;;;;;;;;;;16.43;56.84;101434.81;4989774;28;98868;-81
2021/05/28 01:16:43;;;;;;;;;;;;;;;16.53;56.43;101438.78;4990113;28;97198;-82
2021/05/28 01:19:09;;;;;;;;;;;;;;;16.13;57.48;101434.50;4989505;28;96925;-83
2021/05/28 01:21:35;;;;;;;;;;;;;;;16.24;57.34;101442.84;4997740;28;100324;-82
2021/05/28 01:24:01;;;;;;;;;;;;;;;16.14;57.42;101438.91;4994557;28;97743;-83
2021/05/28 01:26:28;;;;;;;;;;;;;;;16.55;56.36;101444.88;5001098;28;96895;-82
2021/05/28 01:28:54;;;;;;;;;;;;;;;16.53;56.19;101451.25;4992365;28;96896;-82
2021/05/28 01:31:19;;;;;;;;;;;;;;;16.30;56.95;101439.88;4983641;28;102021;-80
2021/05/28 01:33:46;;;;;;;;;;;;;;;16.39;56.48;101446.56;4998116;28;97679;-81
2021/05/28 01:36:11;;;;;;;;;;;;;;;16.02;57.36;101444.78;5001217;28;96972;-81
2021/05/28 01:38:38;;;;;;;;;;;;;;;16.41;56.48;101438.50;5003222;28;96779;-81
2021/05/28 01:41:05;;;;;;;;;;;;;;;16.51;55.91;101451.31;4998642;28;98231;-81
2021/05/28 01:43:32;;;;;;;;;;;;;;;16.44;56.01;101455.22;5008211;28;101376;-81
2021/05/28 01:45:58;;;;;;;;;;;;;;;16.54;55.63;101458.31;5011174;28;96642;-82
2021/05/28 01:48:24;;;;;;;;;;;;;;;16.69;55.47;101458.44;5012374;28;96603;-82
2021/05/28 01:50:52;;;;;;;;;;;;;;;16.48;55.79;101463.91;5003964;28;98113;-82
2021/05/28 01:53:18;;;;;;;;;;;;;;;16.04;56.90;101458.91;5001028;28;96767;-83
2021/05/28 01:55:44;;;;;;;;;;;;;;;16.27;56.64;101458.69;4998987;28;97271;-82
2021/05/28 01:58:12;;;;;;;;;;;;;;;16.22;56.79;101463.38;4991955;28;96930;-82
2021/05/28 02:00:38;;;;;;;;;;;;;;;16.12;56.85;101461.22;4992389;28;103212;-82
2021/05/28 02:03:04;;;;;;;;;;;;;;;16.25;56.47;101457.03;4992482;28;99745;-82
2021/05/28 02:05:31;;;;;;;;;;;;;;;16.24;56.88;101466.84;4986167;28;97075;-83
2021/05/28 02:07:57;;;;;;;;;;;;;;;16.15;57.10;101464.59;4994324;28;96765;-82
2021/05/28 02:10:22;;;;;;;;;;;;;;;15.64;57.97;101465.19;4990441;28;98491;-82
2021/05/28 02:12:48;;;;;;;;;;;;;;;15.98;57.51;101469.00;5008790;28;99419;-83
2021/05/28 02:15:15;;;;;;;;;;;;;;;16.22;56.87;101467.84;4989700;28;96680;-83
2021/05/28 02:17:41;;;;;;;;;;;;;;;15.70;58.20;101464.06;4992363;28;96933;-82
2021/05/28 02:20:08;;;;;;;;;;;;;;;15.84;57.51;101466.97;4983352;28;99153;-83
2021/05/28 02:22:34;;;;;;;;;;;;;;;15.58;58.04;101470.81;4994546;28;97978;-83
2021/05/28 02:25:00;;;;;;;;;;;;;;;16.07;56.59;101474.78;4993531;28;97294;-83
2021/05/28 02:27:26;;;;;;;;;;;;;;;15.82;56.85;101469.69;4988569;28;98578;-83
2021/05/28 02:29:52;;;;;;;;;;;;;;;15.49;57.54;101474.69;4985406;28;100648;-83
2021/05/28 02:32:18;;;;;;;;;;;;;;;15.82;57.01;101476.81;4978148;28;100058;-82
2021/05/28 02:34:44;;;;;;;;;;;;;;;15.99;56.37;101471.59;4984180;28;96867;-83
2021/05/28 02:37:10;;;;;;;;;;;;;;;16.12;55.92;101478.09;4995272;28;96982;-81
2021/05/28 02:39:36;;;;;;;;;;;;;;;15.50;57.43;101472.91;4979386;28;98868;-82
2021/05/28 02:42:03;;;;;;;;;;;;;;;15.58;57.17;101477.94;4980937;28;100071;-83
2021/05/28 02:44:29;;;;;;;;;;;;;;;15.33;57.91;101481.66;4980271;28;97929;-82
2021/05/28 02:49:45;;;;;;;;;;;;;;;15.34;57.59;101485.19;4975544;28;97397;-82
2021/05/28 02:52:11;;;;;;;;;;;;;;;15.33;57.55;101478.13;4998807;28;99310;-83
2021/05/28 02:54:37;;;;;;;;;;;;;;;15.41;57.38;101495.50;5002991;27;96773;-83
2021/05/28 02:57:05;;;;;;;;;;;;;;;15.48;56.51;101490.78;4998271;28;98525;-83
2021/05/28 02:59:31;;;;;;;;;;;;;;;15.30;57.44;101503.06;4991671;28;100635;-84
2021/05/28 03:01:56;;;;;;;;;;;;;;;15.45;56.54;101490.91;4993037;28;97799;-82
2021/05/28 03:04:23;;;;;;;;;;;;;;;15.67;55.73;101499.72;4983796;28;98281;-82
2021/05/28 03:06:50;;;;;;;;;;;;;;;15.78;54.99;101501.88;4995007;28;98277;-81
2021/05/28 03:09:16;;;;;;;;;;;;;;;15.69;55.24;101510.28;5003076;28;99369;-84
2021/05/28 03:11:42;;;;;;;;;;;;;;;15.88;54.66;101501.38;4992890;28;99798;-83
2021/05/28 03:14:08;;;;;;;;;;;;;;;15.57;55.75;101505.50;4987685;28;97062;-83
2021/05/28 03:16:34;;;;;;;;;;;;;;;14.95;57.54;101509.03;4987307;28;96950;-83
2021/05/28 03:19:02;;;;;;;;;;;;;;;14.90;57.04;101508.38;4994178;28;100905;-83
2021/05/28 03:21:38;;;;;;;;;;;;;;;15.09;56.90;101509.34;4993097;28;101213;-83
2021/05/28 03:24:05;;;;;;;;;;;;;;;15.14;56.42;101516.19;4993709;28;97178;-82
2021/05/28 03:26:32;;;;;;;;;;;;;;;15.08;56.37;101518.25;4992854;28;97132;-83
2021/05/28 03:28:59;;;;;;;;;;;;;;;15.05;56.33;101518.34;4986029;28;98570;-82
2021/05/28 03:31:25;;;;;;;;;;;;;;;15.19;56.20;101520.44;4991536;28;98820;-81
2021/05/28 03:33:51;;;;;;;;;;;;;;;15.20;56.00;101527.50;4992320;28;96799;-83
2021/05/28 03:36:17;;;;;;;;;;;;;;;15.05;55.69;101529.88;4993585;28;99095;-83
2021/05/28 03:38:44;;;;;;;;;;;;;;;15.10;56.21;101530.53;4991940;28;97555;-83
2021/05/28 03:41:10;;;;;;;;;;;;;;;15.14;56.14;101542.81;4976254;28;101224;-83
2021/05/28 03:43:36;;;;;;;;;;;;;;;15.44;55.38;101537.97;4989355;28;97055;-83
2021/05/28 03:46:03;;;;;;;;;;;;;;;15.38;55.72;101538.22;4989875;28;96804;-83
2021/05/28 03:48:29;;;;;;;;;;;;;;;15.22;56.13;101544.28;4985482;28;98994;-83
2021/05/28 03:50:55;;;;;;;;;;;;;;;15.30;56.27;101535.03;4993286;28;99556;-83
2021/05/28 03:53:21;;;;;;;;;;;;;;;15.36;56.14;101550.75;4992136;28;97742;-83
2021/05/28 03:55:47;;;;;;;;;;;;;;;15.21;56.27;101538.09;4982275;28;96758;-83
2021/05/28 03:58:14;;;;;;;;;;;;;;;15.15;56.72;101544.53;4987814;28;99208;-82
2021/05/28 04:00:40;;;;;;;;;;;;;;;15.23;56.65;101546.03;4991187;28;99300;-82
2021/05/28 04:03:05;;;;;;;;;;;;;;;15.26;56.35;101546.75;4992755;28;96929;-82
2021/05/28 04:05:32;;;;;;;;;;;;;;;15.64;55.29;101541.59;4993343;28;97154;-83
2021/05/28 04:07:58;;;;;;;;;;;;;;;15.67;55.21;101545.00;4990743;28;100637;-83
2021/05/28 04:10:24;;;;;;;;;;;;;;;15.71;55.17;101551.06;4990014;28;99255;-83
2021/05/28 04:12:49;;;;;;;;;;;;;;;15.39;55.96;101558.63;5002556;28;97089;-82
2021/05/28 04:15:16;;;;;;;;;;;;;;;15.46;56.29;101548.56;5004529;28;96830;-82
2021/05/28 04:17:42;;;;;;;;;;;;;;;15.45;55.92;101558.34;4998248;28;99533;-82
2021/05/28 04:20:08;;;;;;;;;;;;;;;15.80;54.82;101556.00;5001760;28;98814;-82
2021/05/28 04:22:34;;;;;;;;;;;;;;;15.67;54.96;101554.78;5011106;28;98592;-82
2021/05/28 04:25:00;;;;;;;;;;;;;;;15.67;55.54;101555.66;5010201;28;96091;-82
2021/05/28 04:27:26;;;;;;;;;;;;;;;15.67;55.09;101560.13;5002857;28;99724;-83
2021/05/28 04:29:52;;;;;;;;;;;;;;;15.64;55.48;101565.56;5003551;28;96664;-83
2021/05/28 04:32:18;;;;;;;;;;;;;;;15.32;56.39;101570.44;5010014;28;96497;-82
2021/05/28 04:34:44;;;;;;;;;;;;;;;15.63;55.55;101569.16;5004152;28;97783;-83
2021/05/28 04:37:10;;;;;;;;;;;;;;;15.10;57.35;101575.78;4991703;28;98186;-83
2021/05/28 04:39:36;;;;;;;;;;;;;;;15.64;55.95;101571.75;4996021;28;97995;-83
2021/05/28 04:42:02;;;;;;;;;;;;;;;15.69;55.41;101574.22;4991028;28;96940;-83
2021/05/28 04:44:28;;;;;;;;;;;;;;;15.87;55.69;101573.44;4987210;28;96986;-83
2021/05/28 04:46:54;;;;;;;;;;;;;;;16.01;55.30;101573.69;4992069;28;99719;-83
2021/05/28 04:49:21;;;;;;;;;;;;;;;16.30;55.66;101573.22;4986907;28;100888;-84
2021/05/28 04:51:48;;;;;;;;;;;;;;;16.00;55.84;101585.28;4994242;28;97182;-84
2021/05/28 04:54:13;;;;;;;;;;;;;;;16.29;55.01;101582.16;4991022;28;98562;-83
2021/05/28 04:56:39;;;;;;;;;;;;;;;15.31;57.55;101583.81;4993053;28;100749;-83
2021/05/28 04:59:05;;;;;;;;;;;;;;;16.06;56.01;101589.47;4986297;28;97002;-83
2021/05/28 05:01:31;;;;;;;;;;;;;;;15.88;55.91;101589.34;4990626;28;96841;-83
2021/05/28 05:03:57;;;;;;;;;;;;;;;16.08;55.95;101598.28;4990021;28;96924;-84
2021/05/28 05:06:24;;;;;;;;;;;;;;;15.69;56.71;101600.88;4976251;28;97528;-83
2021/05/28 05:08:50;;;;;;;;;;;;;;;16.07;55.66;101602.75;4989338;28;98012;-83
2021/05/28 05:11:16;;;;;;;;;;;;;;;16.03;55.93;101600.25;4984644;28;97370;-83
2021/05/28 05:13:42;;;;;;;;;;;;;;;16.02;56.11;101604.72;4991031;28;96873;-83
2021/05/28 05:16:08;;;;;;;;;;;;;;;15.99;55.91;101604.88;4988975;28;98109;-84
2021/05/28 05:18:36;;;;;;;;;;;;;;;16.19;55.70;101617.31;4999418;28;98966;-83
2021/05/28 05:21:01;;;;;;;;;;;;;;;16.46;54.84;101620.53;5005945;28;96724;-83
2021/05/28 05:23:28;;;;;;;;;;;;;;;16.41;55.07;101617.22;5000729;28;96960;-83
2021/05/28 05:25:54;;;;;;;;;;;;;;;16.28;55.30;101620.41;5001850;28;97812;-82
2021/05/28 05:28:22;;;;;;;;;;;;;;;16.00;56.40;101622.59;4998872;28;97864;-82
2021/05/28 05:30:48;;;;;;;;;;;;;;;16.24;55.52;101624.16;5006778;28;97029;-83
2021/05/28 05:33:14;;;;;;;;;;;;;;;16.66;54.67;101623.19;5006913;28;96690;-83
2021/05/28 05:35:40;;;;;;;;;;;;;;;16.69;54.14;101623.00;5001695;28;97149;-83
2021/05/28 05:38:08;;;;;;;;;;;;;;;16.39;54.86;101625.28;4990594;28;98533;-83
2021/05/28 05:40:35;;;;;;;;;;;;;;;16.49;54.83;101625.72;4990997;28;96847;-83
2021/05/28 05:43:00;;;;;;;;;;;;;;;16.50;54.61;101624.78;4989328;28;97095;-82
2021/05/28 05:45:26;;;;;;;;;;;;;;;16.33;54.97;101637.09;4990078;28;99810;-83
2021/05/28 05:47:52;;;;;;;;;;;;;;;16.58;54.54;101631.50;4985314;28;98777;-84
2021/05/28 05:50:18;;;;;;;;;;;;;;;16.25;55.64;101633.91;4990937;28;97870;-84
2021/05/28 05:52:44;;;;;;;;;;;;;;;16.32;55.71;101640.69;4989743;28;96994;-83
2021/05/28 05:55:10;;;;;;;;;;;;;;;16.60;54.84;101634.13;4992243;28;101765;-83
2021/05/28 05:57:37;;;;;;;;;;;;;;;16.09;56.08;101640.84;4994064;28;99120;-83
2021/05/28 06:00:04;;;;;;;;;;;;;;;16.23;56.02;101649.09;4991252;28;97309;-82
2021/05/28 06:02:32;;;;;;;;;;;;;;;16.17;56.40;101649.38;4993907;28;96850;-83
2021/05/28 06:04:58;;;;;;;;;;;;;;;16.12;56.62;101656.72;4992611;28;98922;-82
2021/05/28 06:07:24;;;;;;;;;;;;;;;16.61;55.68;101652.72;4994350;28;98037;-82
2021/05/28 06:09:49;;;;;;;;;;;;;;;16.68;56.19;101654.16;5000880;28;97578;-82
2021/05/28 06:12:15;;;;;;;;;;;;;;;16.62;56.62;101649.13;4991903;28;96896;-83
2021/05/28 06:14:42;;;;;;;;;;;;;;;16.78;55.96;101659.97;4987268;28;100471;-82
2021/05/28 06:17:08;;;;;;;;;;;;;;;16.57;56.57;101658.25;4995017;28;98751;-83
2021/05/28 06:19:34;;;;;;;;;;;;;;;16.72;56.22;101658.44;4989901;28;98384;-83
2021/05/28 06:22:00;;;;;;;;;;;;;;;16.11;57.01;101662.97;4983238;28;97292;-84
2021/05/28 06:24:26;;;;;;;;;;;;;;;16.34;56.75;101662.81;4991719;28;100815;-84
2021/05/28 06:26:52;;;;;;;;;;;;;;;16.53;56.22;101659.34;4995361;28;98594;-84
2021/05/28 06:29:18;;;;;;;;;;;;;;;16.77;55.72;101657.34;4989931;28;98191;-84
2021/05/28 06:31:45;;;;;;;;;;;;;;;16.44;56.41;101665.06;4954164;28;97370;-84
2021/05/28 06:34:11;;;;;;;;;;;;;;;16.79;55.39;101660.84;4943893;28;98460;-84
2021/05/28 06:36:37;;;;;;;;;;;;;;;17.16;55.31;101666.13;4953174;28;100987;-84
2021/05/28 06:39:04;;;;;;;;;;;;;;;16.50;55.91;101670.13;4950813;28;97409;-84
2021/05/28 06:41:30;;;;;;;;;;;;;;;16.56;56.03;101675.19;4952748;28;96810;-83
2021/05/28 06:43:56;;;;;;;;;;;;;;;16.57;56.08;101675.13;4949353;28;98019;-82
2021/05/28 06:46:22;;;;;;;;;;;;;;;16.65;56.05;101675.69;4953845;28;97746;-83
2021/05/28 06:48:49;;;;;;;;;;;;;;;16.96;55.44;101680.44;4951610;28;96903;-83
2021/05/28 06:51:15;;;;;;;;;;;;;;;16.80;55.90;101683.91;4942240;28;98629;-83
2021/05/28 06:53:41;;;;;;;;;;;;;;;16.72;55.89;101684.28;4942144;28;98748;-83
2021/05/28 06:56:07;;;;;;;;;;;;;;;16.08;57.72;101691.59;4943576;28;99260;-83
2021/05/28 06:58:33;;;;;;;;;;;;;;;16.59;56.31;101689.28;4949801;28;98030;-79
2021/05/28 07:00:59;;;;;;;;;;;;;;;16.57;56.55;101693.81;4946618;28;98741;-79
2021/05/28 07:03:25;;;;;;;;;;;;;;;16.96;54.93;101693.78;4949515;28;98109;-83
2021/05/28 07:05:52;;;;;;;;;;;;;;;16.66;55.74;101697.91;4951243;28;97064;-84
2021/05/28 07:08:18;;;;;;;;;;;;;;;16.64;55.65;101697.09;4950613;28;97979;-81
2021/05/28 07:10:44;;;;;;;;;;;;;;;16.62;56.10;101706.97;4946777;28;97666;-83
2021/05/28 07:13:10;;;;;;;;;;;;;;;16.59;56.29;101701.75;4951266;28;98832;-84
2021/05/28 07:15:38;;;;;;;;;;;;;;;16.34;56.63;101707.31;4945914;28;97306;-84
2021/05/28 07:18:04;;;;;;;;;;;;;;;16.83;55.68;101705.13;4952977;28;97011;-84
2021/05/28 07:20:30;;;;;;;;;;;;;;;16.80;56.15;101706.13;4947489;28;97174;-82
2021/05/28 07:22:57;;;;;;;;;;;;;;;17.52;54.09;101703.56;4942100;28;101035;-82
2021/05/28 07:25:23;;;;;;;;;;;;;;;17.73;53.33;101715.88;4944910;28;99096;-82
2021/05/28 07:27:49;;;;;;;;;;;;;;;17.22;54.12;101718.41;4945593;28;97153;-82
2021/05/28 07:30:15;;;;;;;;;;;;;;;16.93;55.26;101715.31;4963061;28;98155;-82
2021/05/28 07:32:41;;;;;;;;;;;;;;;17.31;54.06;101717.97;4994049;28;102181;-82
2021/05/28 07:35:07;;;;;;;;;;;;;;;17.51;53.24;101720.53;4986355;28;101599;-83
2021/05/28 07:37:33;;;;;;;;;;;;;;;17.46;53.52;101722.53;4986238;28;96709;-82
2021/05/28 07:40:00;;;;;;;;;;;;;;;17.49;53.18;101727.75;4989759;28;97156;-82
2021/05/28 07:42:26;;;;;;;;;;;;;;;18.10;51.77;101722.06;4995461;28;100666;-81
2021/05/28 07:44:52;;;;;;;;;;;;;;;18.45;51.19;101723.75;4989583;28;101494;-82
2021/05/28 07:47:18;;;;;;;;;;;;;;;18.26;51.03;101728.31;4984460;28;96732;-82
2021/05/28 07:49:44;;;;;;;;;;;;;;;18.87;49.61;101734.00;4991454;28;97326;-80
2021/05/28 07:52:10;;;;;;;;;;;;;;;18.83;49.65;101740.50;4994497;28;98168;-79
2021/05/28 07:54:36;;;;;;;;;;;;;;;18.60;50.00;101739.03;4992974;28;99516;-82
2021/05/28 07:57:03;;;;;;;;;;;;;;;18.65;50.26;101738.78;5000309;28;96844;-80
2021/05/28 07:59:29;;;;;;;;;;;;;;;18.65;49.80;101738.78;4999826;28;96912;-81
2021/05/28 08:01:55;;;;;;;;;;;;;;;18.86;49.64;101742.13;5000434;28;99208;-80
2021/05/28 08:04:22;;;;;;;;;;;;;;;18.29;50.64;101753.13;5006283;28;99081;-82
2021/05/28 08:06:47;;;;;;;;;;;;;;;19.17;48.70;101739.47;5005533;28;96876;-83
2021/05/28 08:09:14;;;;;;;;;;;;;;;19.81;47.83;101733.19;4985270;28;97323;-82
2021/05/28 08:11:40;;;;;;;;;;;;;;;19.64;46.42;101733.28;4995910;28;98168;-82
2021/05/28 08:14:07;;;;;;;;;;;;;;;20.60;44.50;101736.47;5002085;28;101718;-82
2021/05/28 08:16:34;;;;;;;;;;;;;;;20.63;43.67;101725.53;5001740;28;97703;-81
2021/05/28 08:19:00;;;;;;;;;;;;;;;20.21;44.11;101726.31;4992034;28;97316;-81
2021/05/28 08:21:26;;;;;;;;;;;;;;;20.11;43.85;101726.00;4997234;28;100850;-82
2021/05/28 08:23:52;;;;;;;;;;;;;;;20.19;44.51;101734.47;4991917;28;99111;-83
2021/05/28 08:26:18;;;;;;;;;;;;;;;19.59;44.60;101738.91;4992579;28;97479;-82
2021/05/28 08:28:44;;;;;;;;;;;;;;;19.83;44.47;101729.44;4991607;28;96853;-82
2021/05/28 08:31:11;;;;;;;;;;;;;;;20.37;43.58;101731.63;4992665;28;98570;-82
2021/05/28 08:33:38;;;;;;;;;;;;;;;20.57;43.36;101731.28;4995869;28;101685;-81
2021/05/28 08:36:05;;;;;;;;;;;;;;;20.45;43.49;101729.34;4995946;28;97035;-81
2021/05/28 08:38:31;;;;;;;;;;;;;;;20.19;43.67;101736.28;4990699;28;97055;-82
2021/05/28 08:40:57;;;;;;;;;;;;;;;20.07;44.06;101739.69;4991827;28;97346;-83
2021/05/28 08:43:23;;;;;;;;;;;;;;;19.27;45.48;101735.34;4993386;28;99327;-83
2021/05/28 08:45:52;;;;;;;;;;;;;;;19.14;45.84;101736.13;4989533;28;97289;-83
2021/05/28 08:48:25;;;;;;;;;;;;;;;19.39;45.51;101728.44;4996799;28;96726;-84
2021/05/28 08:50:55;;;;;;;;;;;;;;;19.94;44.04;101730.66;4995952;28;96701;-82
2021/05/28 08:53:24;;;;;;;;;;;;;;;20.49;43.38;101731.75;4990166;28;100359;-83
2021/05/28 08:55:50;;;;;;;;;;;;;;;20.30;43.46;101734.66;4993757;28;97980;-83
2021/05/28 08:58:16;;;;;;;;;;;;;;;20.39;43.48;101729.75;5000831;28;96741;-83
2021/05/28 09:00:45;;;;;;;;;;;;;;;21.19;42.11;101724.69;4995279;28;101027;-83
2021/05/28 09:03:35;;;;;;;;;;;;;;;21.32;41.00;101730.13;4998492;28;100984;-80
2021/05/28 09:06:03;;;;;;;;;;;;;;;21.69;40.31;101725.88;4982334;28;97347;-82
2021/05/28 09:08:30;;;;;;;;;;;;;;;21.53;40.21;101739.47;4989613;28;97881;-83
2021/05/28 09:11:13;;;;;;;;;;;;;;;20.95;41.54;101735.13;4993255;28;101207;-83
2021/05/28 09:13:43;;;;;;;;;;;;;;;20.22;43.22;101736.94;4985583;28;98844;-84
2021/05/28 09:16:11;;;;;;;;;;;;;;;19.73;43.26;101743.47;4997978;28;97087;-82
2021/05/28 09:18:45;;;;;;;;;;;;;;;18.70;44.48;101737.59;4995652;28;98825;-83
2021/05/28 09:21:12;;;;;;;;;;;;;;;17.97;44.96;101745.00;4996246;28;98893;-83
2021/05/28 09:23:38;;;;;;;;;;;;;;;18.57;43.00;101747.25;4994385;28;100297;-81
2021/05/28 09:26:05;;;;;;;;;;;;;;;19.33;40.27;101743.03;4994865;28;96828;-82
2021/05/28 09:28:40;;;;;;;;;;;;;;;19.26;39.79;101755.06;4993056;28;96756;-82
2021/05/28 09:31:10;;;;;;;;;;;;;;;19.81;38.30;101746.59;4992231;28;97982;-82
2021/05/28 09:33:37;;;;;;;;;;;;;;;19.89;38.31;101747.84;4988699;28;101729;-82
2021/05/28 09:36:11;;;;;;;;;;;;;;;19.96;39.12;101745.69;4987786;28;97060;-82
2021/05/28 09:38:39;;;;;;;;;;;;;;;19.78;40.03;101749.44;4988891;28;97272;-81
2021/05/28 09:41:05;;;;;;;;;;;;;;;19.17;41.25;101752.88;4998731;28;100278;-83
2021/05/28 09:43:32;;;;;;;;;;;;;;;20.16;40.07;101753.41;4996738;28;100358;-81
2021/05/28 09:46:06;;;;;;;;;;;;;;;20.51;39.68;101755.81;4994711;28;98206;-81
2021/05/28 09:48:33;;;;;;;;;;;;;;;20.43;38.60;101758.09;4996487;28;96912;-83
2021/05/28 09:51:00;;;;;;;;;;;;;;;19.50;39.29;101761.75;4999135;28;97816;-83
2021/05/28 09:53:47;;;;;;;;;;;;;;;19.99;39.09;101766.09;4987342;28;98956;-81
2021/05/28 09:56:24;;;;;;;;;;;;;;;19.87;40.02;101767.69;4986556;28;97134;-81
2021/05/28 09:58:53;;;;;;;;;;;;;;;20.47;38.53;101759.66;4994256;28;97077;-84
2021/05/28 10:01:20;;;;;;;;;;;;;;;20.01;39.28;101756.16;4988487;28;100494;-83
2021/05/28 10:03:58;;;;;;;;;;;;;;;20.06;39.17;101764.78;4997516;28;96923;-82
2021/05/28 10:06:25;;;;;;;;;;;;;;;20.02;39.43;101756.03;4990497;28;97702;-83
2021/05/28 10:08:51;;;;;;;;;;;;;;;19.84;41.23;101758.00;5003706;28;96680;-82
2021/05/28 10:11:34;;;;;;;;;;;;;;;20.21;39.46;101759.41;5002942;28;98910;-83
2021/05/28 10:14:02;;;;;;;;;;;;;;;20.45;40.08;101765.13;5004966;28;99713;-83
2021/05/28 10:16:29;;;;;;;;;;;;;;;19.85;41.09;101762.41;4999943;28;96518;-82
2021/05/28 10:18:55;;;;;;;;;;;;;;;21.32;38.72;101759.69;5005367;28;96724;-82
2021/05/28 10:21:34;;;;;;;;;;;;;;;20.32;40.34;101763.25;5001120;28;100208;-82
2021/05/28 10:24:02;;;;;;;;;;;;;;;21.15;38.36;101762.56;5005076;28;99681;-82
2021/05/28 10:26:28;;;;;;;;;;;;;;;20.83;39.30;101769.97;4997034;28;97343;-83
2021/05/28 10:28:56;;;;;;;;;;;;;;;20.99;39.28;101774.28;4999886;28;98364;-83
2021/05/28 10:31:36;;;;;;;;;;;;;;;19.96;41.06;101772.50;4983993;28;100278;-81
2021/05/28 10:34:04;;;;;;;;;;;;;;;19.38;42.56;101766.91;4989384;28;98781;-83
2021/05/28 10:36:39;;;;;;;;;;;;;;;18.74;43.28;101775.78;4990571;28;97138;-79
2021/05/28 10:39:06;;;;;;;;;;;;;;;19.02;43.05;101772.50;4990519;28;96974;-79
2021/05/28 10:41:33;;;;;;;;;;;;;;;18.89;43.25;101780.31;4993661;28;100566;-80
2021/05/28 10:44:01;;;;;;;;;;;;;;;18.87;40.69;101781.34;4992269;28;98584;-79
2021/05/28 10:46:27;;;;;;;;;;;;;;;18.63;44.58;101781.72;4995187;28;96826;-79
2021/05/28 10:49:11;;;;;;;;;;;;;;;18.69;42.73;101777.84;4995771;28;98634;-80
2021/05/28 10:51:56;;;;;;;;;;;;;;;19.31;43.27;101779.78;4993788;28;98036;-80
2021/05/28 10:54:26;;;;;;;;;;;;;;;19.04;43.01;101786.63;4993421;28;97220;-82
2021/05/28 10:56:52;;;;;;;;;;;;;;;19.16;43.05;101788.69;4997208;28;97506;-82
2021/05/28 10:59:19;;;;;;;;;;;;;;;19.20;43.01;101792.91;4994887;28;97756;-83
2021/05/28 11:01:45;;;;;;;;;;;;;;;19.74;41.58;101783.63;4993217;28;99282;-81
2021/05/28 11:04:13;;;;;;;;;;;;;;;19.40;42.99;101773.91;4992205;28;98927;-81
2021/05/28 11:06:55;;;;;;;;;;;;;;;19.59;43.19;101776.44;4987193;28;96948;-83
2021/05/28 11:09:34;;;;;;;;;;;;;;;20.17;41.87;101771.25;4992038;28;96844;-80
2021/05/28 11:12:01;;;;;;;;;;;;;;;19.65;43.35;101776.09;4991499;28;100209;-82
2021/05/28 11:14:27;;;;;;;;;;;;;;;20.09;40.67;101780.69;4992651;28;99963;-82
2021/05/28 11:17:10;;;;;;;;;;;;;;;19.45;42.81;101779.00;4992337;28;97854;-81
2021/05/28 11:19:42;;;;;;;;;;;;;;;19.38;42.21;101775.81;4994108;28;96886;-82
2021/05/28 11:22:08;;;;;;;;;;;;;;;19.00;43.46;101777.06;4991118;28;99858;-82
2021/05/28 11:24:41;;;;;;;;;;;;;;;19.66;43.50;101760.88;4991507;28;98942;-81
2021/05/28 11:27:11;;;;;;;;;;;;;;;19.84;42.80;101754.44;5001036;28;97454;-80
2021/05/28 11:29:37;;;;;;;;;;;;;;;19.94;41.66;101750.28;5014533;28;97294;-78
2021/05/28 11:32:29;;;;;;;;;;;;;;;19.54;42.01;101746.38;5014410;27;96985;-81
2021/05/28 11:35:13;;;;;;;;;;;;;;;19.80;43.04;101743.03;5001687;28;98847;-81
2021/05/28 11:37:40;;;;;;;;;;;;;;;19.87;43.58;101751.59;5011309;28;96615;-83
2021/05/28 11:40:12;;;;;;;;;;;;;;;20.51;41.36;101747.78;5004048;28;96814;-82
2021/05/28 11:42:42;;;;;;;;;;;;;;;19.77;40.87;101750.38;5009987;28;99407;-83
2021/05/28 11:45:08;;;;;;;;;;;;;;;20.58;40.30;101747.31;4989434;28;98454;-81
2021/05/28 11:47:35;;;;;;;;;;;;;;;20.74;39.89;101744.56;4994464;28;97302;-82
2021/05/28 11:50:06;;;;;;;;;;;;;;;20.71;41.01;101746.56;4990953;28;97549;-82
2021/05/28 11:52:33;;;;;;;;;;;;;;;19.30;39.94;101736.97;4991745;28;99295;-83
2021/05/28 11:58:15;;;;;;;;;;;;;;;20.16;39.94;101737.31;4993787;28;96849;-84
2021/05/28 12:00:42;;;;;;;;;;;;;;;20.35;39.70;101739.78;4990674;28;97007;-81
2021/05/28 12:03:08;;;;;;;;;;;;;;;20.60;39.42;101728.44;4995292;28;98871;-83
2021/05/28 12:05:42;;;;;;;;;;;;;;;20.45;39.19;101734.72;4993182;28;99790;-83
2021/05/28 12:08:17;;;;;;;;;;;;;;;21.04;38.01;101729.19;4988508;28;96782;-84
2021/05/28 12:10:43;;;;;;;;;;;;;;;21.21;36.70;101740.69;4986268;28;97186;-82
2021/05/28 12:13:11;;;;;;;;;;;;;;;20.92;37.48;101748.78;4988506;28;98063;-83
2021/05/28 12:15:39;;;;;;;;;;;;;;;20.71;39.10;101755.47;4996945;28;99556;-84
2021/05/28 12:18:13;;;;;;;;;;;;;;;20.61;39.21;101746.28;4992591;28;97661;-83
2021/05/28 12:20:39;;;;;;;;;;;;;;;20.04;39.73;101746.09;4997749;28;96778;-83
2021/05/28 12:23:10;;;;;;;;;;;;;;;20.39;39.26;101749.38;5008867;28;96748;-83
2021/05/28 12:25:38;;;;;;;;;;;;;;;20.16;39.97;101747.19;4995896;28;99668;-82
2021/05/28 12:28:08;;;;;;;;;;;;;;;19.70;39.92;101749.00;4986237;28;97405;-81
2021/05/28 12:30:37;;;;;;;;;;;;;;;19.26;39.51;101755.06;4990837;28;98363;-82
2021/05/28 12:33:05;;;;;;;;;;;;;;;17.45;43.01;101759.13;4994862;28;99988;-83
2021/05/28 12:35:31;;;;;;;;;;;;;;;17.12;45.08;101777.59;4992959;28;100622;-81
2021/05/28 12:38:01;;;;;;;;;;;;;;;17.66;45.77;101786.63;4993748;28;96712;-83
2021/05/28 12:40:31;;;;;;;;;;;;;;;17.02;48.42;101791.44;5006095;28;97363;-82
2021/05/28 12:42:59;;;;;;;;;;;;;;;16.70;49.29;101776.88;5012678;28;96576;-84